Time;durP1;ratioP1;P1;durP2;ratioP2;P2;SDS_P1;SDS_P2;PMS_P1;PMS_P2;Temp;Humidity;BMP_temperature;BMP_pressure;BME280_temperature;BME280_humidity;BME280_pressure;Samples;Min_cycle;Max_cycle;Signal;HPM_P1;HPM_P2
2022/12/31 00:00:33;;;;;;;118.40;100.07;;;;;;;4.96;100.00;102476.31;2113840;28;20191;-64
2022/12/31 00:01:33;;;;;;;119.65;100.93;;;;;;;5.13;100.00;102497.22;2112410;28;20710;-64
2022/12/31 00:02:34;;;;;;;121.73;104.60;;;;;;;4.76;100.00;102452.59;2112280;28;20602;-64
2022/12/31 00:03:36;;;;;;;121.07;101.97;;;;;;;5.11;100.00;102499.50;2114147;28;20247;-64
2022/12/31 00:04:37;;;;;;;123.82;103.82;;;;;;;5.10;100.00;102511.66;2113614;28;20479;-64
2022/12/31 00:05:37;;;;;;;123.63;105.53;;;;;;;5.09;100.00;102501.81;2113487;28;20194;-64
2022/12/31 00:06:38;;;;;;;132.77;111.10;;;;;;;5.09;100.00;102510.06;2107905;28;20236;-64
2022/12/31 00:07:38;;;;;;;116.23;99.43;;;;;;;5.09;100.00;102501.81;2113497;28;20225;-63
2022/12/31 00:08:39;;;;;;;114.30;100.00;;;;;;;5.03;100.00;102503.22;2117789;28;20205;-64
2022/12/31 00:09:39;;;;;;;117.17;101.77;;;;;;;5.09;100.00;102518.28;2113529;28;20205;-64
2022/12/31 00:10:42;;;;;;;114.70;97.17;;;;;;;4.90;100.00;102490.66;2112052;28;20212;-64
2022/12/31 00:11:43;;;;;;;113.35;94.60;;;;;;;5.08;100.00;102522.19;2112455;28;20185;-63
2022/12/31 00:12:43;;;;;;;116.40;96.43;;;;;;;5.07;100.00;102526.09;2113140;28;20201;-64
2022/12/31 00:13:45;;;;;;;112.77;95.67;;;;;;;5.08;100.00;102524.94;2112167;28;20210;-64
2022/12/31 00:14:46;;;;;;;108.55;91.10;;;;;;;5.05;100.00;102523.69;2113498;28;20240;-64
2022/12/31 00:15:47;;;;;;;109.85;93.10;;;;;;;5.04;100.00;102524.03;2112441;28;20187;-64
2022/12/31 00:16:47;;;;;;;110.00;90.50;;;;;;;5.02;100.00;102521.63;2110358;28;20189;-64
2022/12/31 00:17:47;;;;;;;109.73;91.13;;;;;;;4.23;100.00;102397.28;2111210;28;20175;-63
2022/12/31 00:18:53;;;;;;;115.77;92.30;;;;;;;4.90;100.00;102512.63;2110276;28;20189;-63
2022/12/31 00:19:54;;;;;;;131.90;91.28;;;;;;;4.92;100.00;102522.13;2108159;28;20177;-64
2022/12/31 00:20:54;;;;;;;285.73;99.87;;;;;;;4.46;100.00;102461.50;2107534;28;20743;-64
2022/12/31 00:21:54;;;;;;;106.87;90.50;;;;;;;4.79;100.00;102526.06;2112582;28;20238;-64
2022/12/31 00:22:55;;;;;;;125.90;97.87;;;;;;;4.75;100.00;102521.59;2113005;28;20193;-64
2022/12/31 00:23:56;;;;;;;123.47;94.00;;;;;;;4.69;100.00;102523.00;2113553;28;20273;-64
2022/12/31 00:24:56;;;;;;;131.95;99.05;;;;;;;4.65;100.00;102517.41;2112904;28;20709;-64
2022/12/31 00:26:05;;;;;;;243.13;96.83;;;;;;;4.55;100.00;102515.13;2108360;28;20566;-63
2022/12/31 00:27:06;;;;;;;315.50;110.88;;;;;;;4.50;100.00;102515.38;2106429;28;20183;-64
2022/12/31 00:28:06;;;;;;;336.43;116.03;;;;;;;4.48;100.00;102519.59;2108272;28;20722;-64
2022/12/31 00:29:06;;;;;;;397.63;122.20;;;;;;;4.45;100.00;102520.28;2106897;28;20238;-64
2022/12/31 00:30:08;;;;;;;253.83;109.83;;;;;;;4.46;100.00;102519.16;2114010;28;20190;-64
2022/12/31 00:31:21;;;;;;;170.45;108.80;;;;;;;4.37;100.00;102538.47;2112503;28;20260;-64
2022/12/31 00:32:21;;;;;;;276.48;138.25;;;;;;;4.43;100.00;102520.66;2104861;28;20191;-64
2022/12/31 00:33:22;;;;;;;203.90;125.70;;;;;;;4.40;100.00;102524.06;2108749;28;20205;-63
2022/12/31 00:34:22;;;;;;;179.63;131.37;;;;;;;4.37;100.00;102526.72;2113388;28;20293;-63
2022/12/31 00:35:23;;;;;;;336.73;143.53;;;;;;;4.32;100.00;102518.72;2112927;28;20667;-64
2022/12/31 00:36:37;;;;;;;197.60;131.73;;;;;;;4.30;100.00;102524.53;2110045;28;20185;-64
2022/12/31 00:37:37;;;;;;;190.52;129.77;;;;;;;4.30;100.00;102524.53;2109606;28;20259;-64
2022/12/31 00:38:39;;;;;;;128.03;105.83;;;;;;;4.25;100.00;102529.47;2113424;28;20197;-64
2022/12/31 00:39:40;;;;;;;256.13;119.95;;;;;;;4.21;100.00;102529.34;2111180;28;20178;-64
2022/12/31 00:40:40;;;;;;;220.07;133.13;;;;;;;4.21;100.00;102534.03;2110037;28;20216;-64
2022/12/31 00:41:42;;;;;;;165.27;124.73;;;;;;;4.19;100.00;102531.63;2113735;28;20250;-64
2022/12/31 00:42:43;;;;;;;137.93;111.38;;;;;;;4.18;100.00;102541.03;2113265;28;20322;-64
2022/12/31 00:43:44;;;;;;;163.67;125.70;;;;;;;3.94;100.00;102524.53;2113556;28;20189;-64
2022/12/31 00:44:44;;;;;;;177.67;126.77;;;;;;;3.50;100.00;102431.38;2113140;28;20201;-64
2022/12/31 00:45:44;;;;;;;242.30;131.93;;;;;;;4.15;100.00;102540.91;2116380;28;20545;-63
2022/12/31 00:46:45;;;;;;;185.60;126.43;;;;;;;4.16;100.00;102546.03;2112628;28;20203;-64
2022/12/31 00:47:45;;;;;;;195.87;130.67;;;;;;;4.12;100.00;102549.81;2107754;28;20175;-64
2022/12/31 00:48:46;;;;;;;144.30;113.20;;;;;;;4.07;100.00;102544.56;2113212;28;20175;-64
2022/12/31 00:49:47;;;;;;;150.80;118.90;;;;;;;4.01;100.00;102541.22;2105282;28;20258;-64
2022/12/31 00:50:47;;;;;;;141.20;111.93;;;;;;;4.06;100.00;102554.72;2113756;28;20415;-64
2022/12/31 00:51:48;;;;;;;152.00;119.57;;;;;;;4.07;100.00;102550.84;2113287;28;20641;-64
2022/12/31 00:52:48;;;;;;;131.30;108.10;;;;;;;4.04;100.00;102551.53;2113985;28;20262;-64
2022/12/31 00:53:49;;;;;;;142.50;114.77;;;;;;;4.01;100.00;102549.44;2112857;28;20773;-64
2022/12/31 00:54:49;;;;;;;131.33;108.53;;;;;;;4.02;100.00;102550.25;2109445;28;20196;-64
2022/12/31 00:55:50;;;;;;;138.97;109.30;;;;;;;3.46;100.00;102466.91;2107983;28;20223;-63
2022/12/31 00:56:50;;;;;;;167.27;123.37;;;;;;;4.01;100.00;102556.91;2113294;28;20183;-64
2022/12/31 00:57:51;;;;;;;214.00;131.07;;;;;;;4.00;100.00;102555.31;2105741;28;20265;-64
2022/12/31 00:58:52;;;;;;;141.47;109.47;;;;;;;3.98;100.00;102560.31;2113849;28;20180;-64
2022/12/31 00:59:52;;;;;;;193.13;127.53;;;;;;;3.96;100.00;102554.38;2113791;28;20197;-64
2022/12/31 01:00:53;;;;;;;154.47;118.10;;;;;;;3.85;100.00;102528.53;2114904;28;20192;-64
2022/12/31 01:01:53;;;;;;;224.63;136.17;;;;;;;3.44;100.00;102480.13;2114428;28;20197;-64
2022/12/31 01:02:53;;;;;;;221.33;126.27;;;;;;;3.89;100.00;102557.69;2114378;28;20196;-64
2022/12/31 01:04:03;;;;;;;158.67;116.67;;;;;;;3.87;100.00;102559.16;2114871;28;20198;-64
2022/12/31 01:05:04;;;;;;;165.80;122.05;;;;;;;3.87;100.00;102564.63;2114834;28;20158;-64
2022/12/31 01:06:05;;;;;;;163.88;114.80;;;;;;;3.68;100.00;102537.75;2115136;28;20178;-64
2022/12/31 01:07:06;;;;;;;143.35;111.07;;;;;;;3.77;100.00;102548.63;2107252;28;20551;-64
2022/12/31 01:08:06;;;;;;;190.10;133.07;;;;;;;3.83;100.00;102570.00;2115508;28;20192;-63
2022/12/31 01:09:08;;;;;;;194.67;129.57;;;;;;;3.66;100.00;102547.47;2114733;28;20192;-64
2022/12/31 01:10:09;;;;;;;122.82;96.38;;;;;;;3.79;100.00;102566.34;2115153;28;20193;-64
2022/12/31 01:11:23;;;;;;;159.60;119.43;;;;;;;3.80;100.00;102570.69;2111387;28;20203;-64
2022/12/31 01:12:24;;;;;;;159.32;112.07;;;;;;;3.81;100.00;102566.81;2114159;28;20194;-64
2022/12/31 01:13:24;;;;;;;132.27;98.90;;;;;;;3.79;100.00;102566.34;2112442;28;20201;-63
2022/12/31 01:14:24;;;;;;;168.60;111.53;;;;;;;3.80;100.00;102567.94;2111894;28;20197;-63
2022/12/31 01:15:25;;;;;;;169.00;113.13;;;;;;;3.85;100.00;102566.94;2110629;28;20463;-64
2022/12/31 01:16:32;;;;;;;172.57;121.23;;;;;;;3.80;100.00;102558.94;2114868;28;20226;-64
2022/12/31 01:17:33;;;;;;;169.68;111.90;;;;;;;3.85;100.00;102564.19;2109777;28;20272;-63
2022/12/31 01:18:34;;;;;;;140.97;106.37;;;;;;;3.66;100.00;102552.94;2114738;28;20184;-64
2022/12/31 01:19:34;;;;;;;173.00;115.50;;;;;;;3.84;100.00;102570.81;2113827;28;20658;-64
2022/12/31 01:20:40;;;;;;;172.57;127.87;;;;;;;3.86;100.00;102568.53;2113450;28;20221;-64
2022/12/31 01:21:43;;;;;;;158.52;110.70;;;;;;;3.83;100.00;102570.00;2114634;28;20189;-64
2022/12/31 01:22:43;;;;;;;205.10;115.85;;;;;;;3.81;100.00;102564.06;2113987;28;20206;-64
2022/12/31 01:23:44;;;;;;;306.83;140.97;;;;;;;3.71;100.00;102550.81;2115023;28;20200;-64
2022/12/31 01:24:44;;;;;;;229.40;122.13;;;;;;;3.82;100.00;102567.59;2113674;28;20682;-64
2022/12/31 01:25:45;;;;;;;227.13;114.10;;;;;;;3.81;100.00;102566.00;2108728;28;20186;-64
2022/12/31 01:26:45;;;;;;;308.03;116.10;;;;;;;3.80;100.00;102567.94;2107271;28;20193;-63
2022/12/31 01:27:46;;;;;;;207.17;127.27;;;;;;;3.78;100.00;102570.22;2107407;28;20178;-64
2022/12/31 01:28:46;;;;;;;254.33;109.63;;;;;;;2.96;100.00;102440.84;2109646;28;20193;-63
2022/12/31 01:29:47;;;;;;;345.13;114.63;;;;;;;3.75;100.00;102568.16;2113682;28;20192;-64
2022/12/31 01:30:47;;;;;;;453.47;130.40;;;;;;;3.77;100.00;102576.84;2114490;28;20347;-64
2022/12/31 01:31:48;;;;;;;453.50;129.10;;;;;;;3.77;100.00;102573.31;2109592;28;20666;-63
2022/12/31 01:32:48;;;;;;;193.40;112.27;;;;;;;3.74;100.00;102574.78;2109027;28;20218;-64
2022/12/31 01:33:50;;;;;;;384.67;127.07;;;;;;;3.74;100.00;102587.72;2112255;28;20198;-64
2022/12/31 01:34:50;;;;;;;158.60;118.43;;;;;;;3.76;100.00;102577.19;2106233;28;20174;-63
2022/12/31 01:35:51;;;;;;;152.00;112.27;;;;;;;3.74;100.00;102579.50;2107730;28;20182;-64
2022/12/31 01:36:51;;;;;;;243.40;116.83;;;;;;;3.71;100.00;102575.47;2106571;28;20595;-64
2022/12/31 01:37:52;;;;;;;165.03;110.60;;;;;;;3.69;100.00;102576.97;2110528;28;20640;-64
2022/12/31 01:38:54;;;;;;;139.50;106.07;;;;;;;3.62;100.00;102574.75;2114595;28;20202;-63
2022/12/31 01:39:55;;;;;;;147.60;110.65;;;;;;;3.16;100.00;102492.03;2114226;28;20201;-63
2022/12/31 01:40:55;;;;;;;163.23;115.23;;;;;;;3.67;100.00;102573.72;2110058;28;20272;-64
2022/12/31 01:41:57;;;;;;;146.50;109.27;;;;;;;3.65;100.00;102574.06;2105769;28;20203;-64
2022/12/31 01:42:57;;;;;;;164.73;119.72;;;;;;;3.46;100.00;102556.53;2113804;28;20190;-64
2022/12/31 01:44:01;;;;;;;162.60;119.33;;;;;;;3.60;100.00;102582.50;2106507;28;20175;-64
2022/12/31 01:45:02;;;;;;;173.23;122.18;;;;;;;3.08;100.00;102492.94;2114803;27;20201;-64
2022/12/31 01:46:02;;;;;;;149.93;104.73;;;;;;;3.52;100.00;102568.88;2111449;28;20181;-63
2022/12/31 01:47:04;;;;;;;159.43;115.83;;;;;;;3.40;100.00;102564.19;2113336;28;20225;-63
2022/12/31 01:48:10;;;;;;;168.27;119.30;;;;;;;3.51;100.00;102575.50;2108761;28;20247;-63
2022/12/31 01:49:35;;;;;;;147.02;111.82;;;;;;;3.46;100.00;102572.97;2110197;28;20216;-63
2022/12/31 01:50:38;;;;;;;166.13;118.13;;;;;;;3.38;100.00;102571.16;2112613;28;20200;-63
2022/12/31 01:51:42;;;;;;;169.85;119.05;;;;;;;3.33;100.00;102565.88;2114872;27;20221;-64
2022/12/31 01:52:56;;;;;;;172.05;113.55;;;;;;;3.35;100.00;102571.81;2121417;27;20200;-63
2022/12/31 01:53:59;;;;;;;211.30;123.15;;;;;;;3.36;100.00;102571.47;2107424;28;20208;-64
2022/12/31 01:55:13;;;;;;;177.32;123.00;;;;;;;3.37;100.00;102566.78;2108093;27;20657;-63
2022/12/31 01:56:15;;;;;;;146.00;107.43;;;;;;;3.38;100.00;102562.94;2114635;28;20166;-63
2022/12/31 01:57:16;;;;;;;149.40;112.55;;;;;;;3.37;100.00;102562.13;2114588;27;20196;-63
2022/12/31 01:58:21;;;;;;;154.60;114.63;;;;;;;3.35;100.00;102572.63;2107493;28;20178;-64
2022/12/31 01:59:25;;;;;;;181.93;119.15;;;;;;;3.29;100.00;102549.28;2114627;28;20243;-64
2022/12/31 02:00:26;;;;;;;277.30;127.43;;;;;;;3.37;100.00;102573.06;2107235;28;20194;-64
2022/12/31 02:01:31;;;;;;;411.60;133.97;;;;;;;3.19;100.00;102535.22;2112020;28;20674;-64
2022/12/31 02:02:32;;;;;;;184.55;116.07;;;;;;;3.27;100.00;102551.56;2113969;28;20634;-64
2022/12/31 02:03:32;;;;;;;258.07;130.10;;;;;;;3.39;100.00;102556.31;2114333;28;20253;-63
2022/12/31 02:04:33;;;;;;;353.83;137.10;;;;;;;3.43;100.00;102565.44;2111527;28;20190;-63
2022/12/31 02:06:07;;;;;;;216.27;121.33;;;;;;;3.44;100.00;102570.56;2112436;28;20189;-64
2022/12/31 02:07:09;;;;;;;244.77;126.65;;;;;;;3.45;100.00;102560.44;2113732;28;20727;-63
2022/12/31 02:08:10;;;;;;;163.60;110.85;;;;;;;3.47;100.00;102564.44;2114450;28;20258;-63
2022/12/31 02:09:11;;;;;;;187.60;114.47;;;;;;;3.49;100.00;102566.84;2113519;28;20195;-63
2022/12/31 02:10:12;;;;;;;175.90;120.77;;;;;;;3.51;100.00;102567.28;2108180;28;20647;-63
2022/12/31 02:11:24;;;;;;;161.67;116.60;;;;;;;3.55;100.00;102570.97;2107726;28;20180;-64
2022/12/31 02:12:24;;;;;;;202.45;118.88;;;;;;;3.56;100.00;102567.09;2107869;28;20187;-64
2022/12/31 02:13:25;;;;;;;193.53;117.63;;;;;;;3.57;100.00;102563.19;2106119;28;20187;-64
2022/12/31 02:14:40;;;;;;;158.90;116.03;;;;;;;3.58;100.00;102562.03;2107802;28;20191;-63
2022/12/31 02:15:48;;;;;;;167.35;114.75;;;;;;;3.59;100.00;102558.97;2114373;28;20720;-63
2022/12/31 02:17:03;;;;;;;192.65;115.72;;;;;;;3.58;100.00;102565.59;2106390;28;20557;-63
2022/12/31 02:18:10;;;;;;;170.55;111.38;;;;;;;3.57;100.00;102564.00;2106380;28;20172;-64
2022/12/31 02:19:45;;;;;;;166.18;114.85;;;;;;;3.58;100.00;102560.13;2114235;28;20544;-63
2022/12/31 02:21:15;;;;;;;189.18;110.60;;;;;;;3.58;100.00;102562.88;2111227;28;20282;-64
2022/12/31 02:22:37;;;;;;;183.35;114.30;;;;;;;3.55;100.00;102563.53;2113038;28;20645;-64
2022/12/31 02:23:47;;;;;;;175.68;111.45;;;;;;;3.53;100.00;102573.22;2106457;28;20166;-64
2022/12/31 02:25:32;;;;;;;234.20;123.75;;;;;;;3.53;100.00;102565.00;2106105;28;20178;-63
2022/12/31 02:26:47;;;;;;;294.58;111.40;;;;;;;3.50;100.00;102569.22;2083530;28;20672;-63
2022/12/31 02:27:59;;;;;;;346.08;119.25;;;;;;;3.38;100.00;102565.66;2109743;28;20280;-64
2022/12/31 02:29:25;;;;;;;411.75;125.55;;;;;;;3.34;100.00;102562.00;2114095;28;20238;-64
2022/12/31 02:30:31;;;;;;;261.83;119.40;;;;;;;3.38;100.00;102569.19;2087918;28;20211;-64
2022/12/31 02:31:42;;;;;;;210.93;124.40;;;;;;;3.40;100.00;102572.41;2111663;28;20209;-64
2022/12/31 02:33:09;;;;;;;326.73;110.18;;;;;;;3.35;100.00;102563.59;2107606;28;20184;-63
2022/12/31 02:34:25;;;;;;;250.52;104.45;;;;;;;3.29;100.00;102571.19;2106076;28;20197;-64
2022/12/31 02:35:47;;;;;;;357.95;117.47;;;;;;;3.35;100.00;102569.06;2113083;28;20164;-64
2022/12/31 02:36:52;;;;;;;185.25;100.32;;;;;;;3.36;100.00;102576.16;2110597;28;20199;-64
2022/12/31 02:38:14;;;;;;;278.48;115.07;;;;;;;2.88;100.00;102501.97;2114043;28;20169;-63
2022/12/31 02:39:15;;;;;;;140.38;92.82;;;;;;;3.34;100.00;102573.72;2109630;28;20287;-64
2022/12/31 02:40:19;;;;;;;178.03;103.60;;;;;;;3.29;100.00;102586.84;2113953;28;20192;-63
2022/12/31 02:42:39;;;;;;;196.95;105.65;;;;;;;3.32;100.00;102586.16;2113338;28;20599;-63
2022/12/31 02:43:46;;;;;;;127.30;101.73;;;;;;;2.57;100.00;102475.00;2114275;28;20188;-64
2022/12/31 02:44:46;;;;;;;204.18;109.07;;;;;;;3.26;100.00;102587.53;2113864;28;20659;-64
2022/12/31 02:45:55;;;;;;;231.07;114.80;;;;;;;3.24;100.00;102585.09;2114082;28;20548;-64
2022/12/31 02:46:59;;;;;;;167.82;112.80;;;;;;;3.24;100.00;102587.06;2107700;28;20192;-63
2022/12/31 02:48:35;;;;;;;118.10;93.28;;;;;;;3.23;100.00;102590.94;2106265;28;20246;-64
2022/12/31 02:50:13;;;;;;;119.60;97.45;;;;;;;3.25;100.00;102588.66;2080829;28;20209;-63
2022/12/31 02:51:35;;;;;;;119.13;97.55;;;;;;;3.26;100.00;102591.06;2105588;28;20219;-64
2022/12/31 02:53:04;;;;;;;118.55;97.68;;;;;;;3.28;100.00;102591.53;2109684;28;20661;-64
2022/12/31 02:54:20;;;;;;;118.20;95.75;;;;;;;3.29;100.00;102593.13;2114160;28;20188;-64
2022/12/31 02:55:49;;;;;;;116.80;91.95;;;;;;;3.30;100.00;102594.75;2109499;28;20197;-64
2022/12/31 02:57:40;;;;;;;118.30;94.57;;;;;;;3.30;100.00;102592.00;2106200;28;20273;-63
2022/12/31 03:02:52;;;;;;;138.20;97.47;;;;;;;2.72;100.00;102490.81;2105446;28;20244;-64
2022/12/31 03:04:30;;;;;;;119.60;91.88;;;;;;;3.37;100.00;102585.97;2107443;28;20192;-64
2022/12/31 03:05:16;;;;;;;115.85;94.05;;;;;;;3.38;100.00;102590.34;2108387;28;20213;-63
2022/12/31 03:06:17;;;;;;;123.03;96.57;;;;;;;2.55;100.00;102460.84;2113323;28;20200;-64
2022/12/31 03:07:23;;;;;;;112.17;90.90;;;;;;;3.35;100.00;102591.00;2109014;28;20270;-64
2022/12/31 03:08:25;;;;;;;119.38;91.68;;;;;;;3.37;100.00;102581.28;2109698;28;20680;-63
2022/12/31 03:09:25;;;;;;;149.90;100.07;;;;;;;3.38;100.00;102585.63;2113960;28;20190;-63
2022/12/31 03:10:26;;;;;;;119.47;92.37;;;;;;;2.97;100.00;102508.19;2111957;28;20185;-64
2022/12/31 03:12:46;;;;;;;117.10;88.85;;;;;;;3.39;100.00;102595.44;2108733;28;20229;-63
2022/12/31 03:13:47;;;;;;;133.43;94.78;;;;;;;3.37;100.00;102581.28;2107182;28;20206;-63
2022/12/31 03:14:47;;;;;;;148.90;92.80;;;;;;;3.36;100.00;102585.19;2106641;28;20649;-64
2022/12/31 03:15:48;;;;;;;116.77;91.90;;;;;;;3.37;100.00;102586.78;2111963;28;20623;-64
2022/12/31 03:16:48;;;;;;;128.73;96.30;;;;;;;3.35;100.00;102586.31;2114283;28;20165;-63
2022/12/31 03:17:48;;;;;;;129.10;101.63;;;;;;;3.34;100.00;102571.00;2105575;28;20198;-64
2022/12/31 03:22:46;;;;;;;129.85;98.50;;;;;;;3.26;100.00;102579.28;2104501;28;20791;-64
2022/12/31 03:26:32;;;;;;;138.68;99.20;;;;;;;3.18;100.00;102578.22;2105962;28;20223;-63
2022/12/31 03:27:32;;;;;;;138.77;99.57;;;;;;;3.15;100.00;102575.38;2113249;28;20190;-64
2022/12/31 03:28:32;;;;;;;129.90;94.23;;;;;;;3.13;100.00;102578.44;2112907;28;20257;-64
2022/12/31 03:29:33;;;;;;;135.00;98.13;;;;;;;3.05;100.00;102567.56;2113542;27;20194;-63
2022/12/31 03:30:35;;;;;;;130.17;98.77;;;;;;;2.90;100.00;102551.72;2112790;28;20261;-64
2022/12/31 03:31:36;;;;;;;141.20;103.65;;;;;;;2.84;100.00;102548.41;2112608;28;20183;-64
2022/12/31 03:32:36;;;;;;;137.48;103.72;;;;;;;3.04;100.00;102585.13;2113706;28;20170;-64
2022/12/31 03:33:39;;;;;;;140.80;107.53;;;;;;;3.04;100.00;102585.91;2105706;28;20552;-64
2022/12/31 03:34:39;;;;;;;141.88;101.38;;;;;;;3.01;100.00;102589.34;2111696;28;20257;-64
2022/12/31 03:35:41;;;;;;;135.53;102.00;;;;;;;2.98;100.00;102592.72;2113303;28;20239;-63
2022/12/31 03:36:42;;;;;;;138.40;101.18;;;;;;;2.97;100.00;102591.13;2112795;28;20190;-64
2022/12/31 03:37:42;;;;;;;133.33;99.53;;;;;;;2.95;100.00;102593.41;2113095;28;20656;-64
2022/12/31 03:38:43;;;;;;;132.10;100.57;;;;;;;2.95;100.00;102589.88;2112933;28;20621;-64
2022/12/31 03:39:43;;;;;;;134.73;99.33;;;;;;;2.92;100.00;102594.06;2113094;28;20665;-63
2022/12/31 03:40:49;;;;;;;133.93;98.90;;;;;;;2.92;100.00;102591.34;2106903;28;20277;-63
2022/12/31 03:41:49;;;;;;;127.68;96.82;;;;;;;2.95;100.00;102601.63;2104958;28;20664;-63
2022/12/31 03:42:50;;;;;;;133.13;99.30;;;;;;;2.77;100.00;102563.75;2108271;28;20646;-64
2022/12/31 03:43:50;;;;;;;130.17;99.50;;;;;;;2.91;100.00;102600.69;2115153;27;20193;-64
2022/12/31 03:44:51;;;;;;;123.83;95.70;;;;;;;2.89;100.00;102597.50;2120381;27;20661;-63
2022/12/31 03:45:53;;;;;;;125.97;96.93;;;;;;;2.90;100.00;102587.31;2114290;28;20170;-64
2022/12/31 03:46:53;;;;;;;127.38;97.35;;;;;;;2.89;100.00;102591.22;2112469;28;20620;-64
2022/12/31 03:47:54;;;;;;;127.50;95.33;;;;;;;2.88;100.00;102598.59;2113237;28;20186;-63
2022/12/31 03:48:54;;;;;;;126.43;95.33;;;;;;;2.79;100.00;102580.66;2112642;28;20186;-64
2022/12/31 03:49:55;;;;;;;132.93;100.53;;;;;;;2.83;100.00;102593.31;2112839;28;20234;-63
2022/12/31 03:50:55;;;;;;;140.93;103.77;;;;;;;2.82;100.00;102601.91;2112790;28;20253;-64
2022/12/31 03:51:55;;;;;;;149.90;110.13;;;;;;;2.78;100.00;102598.22;2113691;28;20174;-64
2022/12/31 03:52:56;;;;;;;135.17;101.90;;;;;;;2.78;100.00;102606.44;2112847;28;20695;-63
2022/12/31 03:53:57;;;;;;;153.23;106.57;;;;;;;2.79;100.00;102599.81;2112537;28;20233;-63
2022/12/31 03:54:57;;;;;;;169.20;108.80;;;;;;;2.73;100.00;102606.63;2109630;28;20198;-63
2022/12/31 03:55:58;;;;;;;170.73;108.40;;;;;;;2.73;100.00;102609.34;2106977;28;20168;-63
2022/12/31 03:56:58;;;;;;;164.07;107.77;;;;;;;2.71;100.00;102606.13;2113931;28;20220;-64
2022/12/31 03:57:59;;;;;;;152.40;106.30;;;;;;;2.65;100.00;102602.81;2114160;28;20170;-64
2022/12/31 03:58:59;;;;;;;154.47;109.03;;;;;;;2.61;100.00;102604.59;2106319;28;20266;-64
2022/12/31 04:00:00;;;;;;;164.67;102.37;;;;;;;2.54;100.00;102601.56;2112029;28;20242;-63
2022/12/31 04:01:00;;;;;;;147.53;104.53;;;;;;;2.27;100.00;102568.41;2113563;28;20186;-63
2022/12/31 04:02:00;;;;;;;231.37;115.77;;;;;;;2.38;100.00;102608.75;2109862;28;20602;-63
2022/12/31 04:03:01;;;;;;;173.93;107.33;;;;;;;2.30;100.00;102612.31;2104811;28;20275;-64
2022/12/31 04:04:01;;;;;;;198.30;115.50;;;;;;;2.30;100.00;102619.72;2106840;28;20216;-63
2022/12/31 04:05:02;;;;;;;153.30;106.20;;;;;;;2.27;100.00;102618.44;2113605;28;20590;-63
2022/12/31 04:06:02;;;;;;;154.60;105.10;;;;;;;2.28;100.00;102630.19;2105885;28;20266;-63
2022/12/31 04:07:03;;;;;;;159.27;109.43;;;;;;;2.22;100.00;102629.56;2113122;28;20186;-64
2022/12/31 04:08:03;;;;;;;147.43;105.83;;;;;;;2.20;100.00;102639.22;2113943;28;20212;-63
2022/12/31 04:09:04;;;;;;;168.83;115.27;;;;;;;2.17;100.00;102643.41;2113908;28;20187;-63
2022/12/31 04:10:07;;;;;;;165.83;111.27;;;;;;;1.93;100.00;102610.38;2110021;28;20186;-63
2022/12/31 04:11:07;;;;;;;181.30;114.50;;;;;;;2.17;100.00;102648.09;2107953;28;20186;-63
2022/12/31 04:12:07;;;;;;;168.70;114.33;;;;;;;2.20;100.00;102652.91;2113754;28;20174;-63
2022/12/31 04:13:08;;;;;;;232.37;121.60;;;;;;;2.20;100.00;102652.91;2112866;28;20221;-63
2022/12/31 04:14:08;;;;;;;215.30;129.80;;;;;;;2.22;100.00;102653.38;2105679;28;20273;-63
2022/12/31 04:15:13;;;;;;;185.07;118.57;;;;;;;2.29;100.00;102651.75;2105352;28;20641;-64
2022/12/31 04:16:14;;;;;;;199.10;114.65;;;;;;;2.41;100.00;102654.59;2113008;28;20640;-64
2022/12/31 04:17:14;;;;;;;238.70;113.97;;;;;;;2.42;100.00;102645.25;2113684;28;20556;-63
2022/12/31 04:18:14;;;;;;;304.63;124.37;;;;;;;2.50;100.00;102657.28;2109083;28;20214;-64
2022/12/31 04:19:15;;;;;;;226.30;100.97;;;;;;;2.58;100.00;102659.19;2105348;28;20731;-63
2022/12/31 04:20:16;;;;;;;266.43;106.73;;;;;;;2.53;100.00;102665.66;2104677;28;20594;-64
2022/12/31 04:21:16;;;;;;;298.90;117.63;;;;;;;2.61;100.00;102653.84;2104666;28;20559;-63
2022/12/31 04:22:17;;;;;;;413.43;132.97;;;;;;;2.61;100.00;102640.16;2104664;28;20641;-63
2022/12/31 04:23:17;;;;;;;180.07;104.20;;;;;;;2.69;100.00;102658.50;2105780;28;20518;-63
2022/12/31 04:24:18;;;;;;;397.97;135.20;;;;;;;2.75;100.00;102653.63;2105229;28;20178;-63
2022/12/31 04:25:18;;;;;;;225.77;115.63;;;;;;;2.80;100.00;102665.19;2105513;28;20227;-64
2022/12/31 04:26:19;;;;;;;344.87;129.27;;;;;;;2.87;100.00;102662.72;2105269;28;20186;-63
2022/12/31 04:27:19;;;;;;;307.77;122.60;;;;;;;2.95;100.00;102674.78;2105492;28;20198;-63
2022/12/31 04:28:20;;;;;;;216.80;113.53;;;;;;;3.00;100.00;102666.38;2105274;28;20181;-64
2022/12/31 04:29:20;;;;;;;384.30;129.47;;;;;;;3.06;100.00;102685.00;2105396;28;20167;-64
2022/12/31 04:30:20;;;;;;;323.77;115.27;;;;;;;3.14;100.00;102659.47;2105097;28;20247;-64
2022/12/31 04:31:21;;;;;;;436.37;123.50;;;;;;;2.91;100.00;102625.34;2105240;28;20248;-63
2022/12/31 04:32:21;;;;;;;335.07;109.47;;;;;;;3.24;100.00;102669.25;2104751;28;20218;-64
2022/12/31 04:33:22;;;;;;;367.13;114.27;;;;;;;3.17;100.00;102663.50;2105398;28;20183;-64
2022/12/31 04:34:22;;;;;;;395.43;112.30;;;;;;;3.20;100.00;102669.13;2106278;28;20575;-63
2022/12/31 04:35:23;;;;;;;334.00;111.03;;;;;;;3.20;100.00;102676.53;2107081;28;20183;-63
2022/12/31 04:36:23;;;;;;;399.20;110.23;;;;;;;3.23;100.00;102673.94;2111928;27;20172;-63
2022/12/31 04:37:23;;;;;;;324.77;103.70;;;;;;;2.57;100.00;102561.78;2122626;27;20179;-64
2022/12/31 04:38:24;;;;;;;335.53;103.80;;;;;;;3.32;100.00;102679.34;2115381;28;20263;-64
2022/12/31 04:39:25;;;;;;;507.00;120.23;;;;;;;2.48;100.00;102542.69;2124176;27;20222;-63
2022/12/31 04:40:25;;;;;;;220.80;99.63;;;;;;;3.43;100.00;102678.63;2116386;27;20188;-64
2022/12/31 04:41:26;;;;;;;315.57;104.07;;;;;;;3.47;100.00;102679.56;2121306;27;20323;-63
2022/12/31 04:42:26;;;;;;;190.67;86.40;;;;;;;3.47;100.00;102676.00;2118233;27;20186;-63
2022/12/31 04:43:26;;;;;;;189.27;89.57;;;;;;;3.56;100.00;102679.47;2111782;27;20217;-64
2022/12/31 04:44:27;;;;;;;336.40;98.53;;;;;;;3.62;100.00;102680.88;2109267;28;20165;-63
2022/12/31 04:45:27;;;;;;;127.03;82.03;;;;;;;3.67;100.00;102683.41;2115373;28;20262;-64
2022/12/31 04:46:32;;;;;;;114.10;74.50;;;;;;;3.71;100.00;102685.16;2115068;28;20198;-64
2022/12/31 04:47:33;;;;;;;145.75;82.97;;;;;;;3.77;100.00;102686.56;2107166;28;20188;-64
2022/12/31 04:48:34;;;;;;;155.50;80.53;;;;;;;3.78;100.00;102687.34;2114698;28;20175;-64
2022/12/31 04:49:34;;;;;;;172.63;82.00;;;;;;;3.81;100.00;102678.44;2115405;28;20170;-64
2022/12/31 04:50:34;;;;;;;103.10;70.47;;;;;;;3.85;100.00;102680.19;2114759;28;20188;-64
2022/12/31 04:51:35;;;;;;;103.40;68.93;;;;;;;3.88;100.00;102681.44;2114963;28;20227;-63
2022/12/31 04:52:36;;;;;;;125.57;71.90;;;;;;;3.92;100.00;102682.38;2114518;28;20192;-64
2022/12/31 04:53:36;;;;;;;144.20;69.17;;;;;;;3.85;100.00;102666.47;2115301;28;20177;-63
2022/12/31 04:54:36;;;;;;;102.83;64.90;;;;;;;3.99;100.00;102685.34;2115172;28;20665;-63
2022/12/31 04:55:37;;;;;;;84.93;59.70;;;;;;;4.01;100.00;102680.34;2115499;28;20630;-64
2022/12/31 04:56:37;;;;;;;84.27;60.03;;;;;;;4.00;100.00;102687.78;2115245;28;20200;-63
2022/12/31 04:57:40;;;;;;;88.87;60.27;;;;;;;4.04;100.00;102690.63;2115303;28;20262;-64